Time;durP1;ratioP1;P1;durP2;ratioP2;P2;SDS_P1;SDS_P2;PMS_P1;PMS_P2;Temp;Humidity;BMP_temperature;BMP_pressure;BME280_temperature;BME280_humidity;BME280_pressure;Samples;Min_cycle;Max_cycle;Signal;HPM_P1;HPM_P2
2022/01/09 00:02:02;;;;;;;;;5.50;2.00;;;;;7.73;68.10;99691.91;5057263;28;46233;-51
2022/01/09 00:04:27;;;;;;;;;0.33;0.00;;;;;7.69;68.45;99697.69;5056772;28;45442;-51
2022/01/09 00:06:53;;;;;;;;;2.00;0.00;;;;;7.63;68.91;99709.72;5057508;28;45280;-51
2022/01/09 00:09:18;;;;;;;;;2.00;0.67;;;;;7.55;69.54;99725.53;5058008;28;45301;-49
2022/01/09 00:11:44;;;;;;;;;2.25;1.00;;;;;7.53;69.50;99732.78;5057383;28;46057;-50
2022/01/09 00:14:09;;;;;;;;;5.00;0.67;;;;;7.47;69.03;99734.22;5057438;28;45271;-47
2022/01/09 00:16:34;;;;;;;;;3.25;1.00;;;;;7.43;68.94;99730.22;5057752;28;45794;-48
2022/01/09 00:19:00;;;;;;;;;1.75;1.75;;;;;7.40;68.98;99732.31;5057488;28;45287;-49
2022/01/09 00:21:25;;;;;;;;;3.75;0.50;;;;;7.36;69.22;99749.47;5057119;28;46227;-51
2022/01/09 00:23:50;;;;;;;;;3.75;1.00;;;;;7.02;69.76;99699.88;5057222;28;45204;-51
2022/01/09 00:26:16;;;;;;;;;5.00;1.00;;;;;7.29;69.72;99754.56;5057375;28;45170;-53
2022/01/09 00:28:41;;;;;;;;;0.00;0.00;;;;;7.24;69.99;99748.88;5057695;28;45397;-49
2022/01/09 00:31:07;;;;;;;;;9.25;2.00;;;;;7.20;69.64;99760.72;5057009;28;45876;-49
2022/01/09 00:33:32;;;;;;;;;0.75;0.75;;;;;7.21;70.01;99778.28;5057419;28;45444;-50
2022/01/09 00:35:58;;;;;;;;;4.75;1.25;;;;;7.19;70.25;99774.94;5057357;28;45241;-51
2022/01/09 00:38:23;;;;;;;;;2.00;0.75;;;;;7.18;69.97;99770.63;5057065;28;45249;-48
2022/01/09 00:40:48;;;;;;;;;2.00;2.00;;;;;7.04;69.92;99766.69;5057018;28;45294;-51
2022/01/09 00:43:14;;;;;;;;;2.00;0.00;;;;;7.14;69.77;99791.25;5057073;28;45417;-50
2022/01/09 00:45:41;;;;;;;;;6.00;2.00;;;;;7.12;70.48;99787.06;5057118;28;45339;-49
2022/01/09 00:48:07;;;;;;;;;9.50;1.25;;;;;7.09;70.00;99798.81;5057252;28;45472;-51
2022/01/09 00:50:36;;;;;;;;;1.00;0.00;;;;;7.06;69.64;99799.09;5056945;28;45339;-52
2022/01/09 00:53:03;;;;;;;;;4.00;1.00;;;;;7.02;69.96;99803.00;5089240;27;45318;-49
2022/01/09 00:55:28;;;;;;;;;0.00;0.00;;;;;7.03;70.35;99809.94;5056943;28;45323;-49
2022/01/09 00:57:53;;;;;;;;;5.75;0.75;;;;;7.02;70.52;99816.22;5057182;28;45418;-52
2022/01/09 01:00:19;;;;;;;;;2.50;1.75;;;;;7.00;69.42;99820.84;5056648;28;46115;-53
2022/01/09 01:02:44;;;;;;;;;4.25;1.25;;;;;6.99;70.38;99821.78;5056816;28;45458;-50
2022/01/09 01:05:10;;;;;;;;;2.00;1.00;;;;;6.96;69.73;99836.16;5056939;28;45398;-52
2022/01/09 01:07:35;;;;;;;;;2.25;1.00;;;;;6.94;69.43;99837.28;5056878;28;45256;-50
2022/01/09 01:10:01;;;;;;;;;1.00;0.00;;;;;6.94;69.54;99855.78;5056873;28;45420;-52
2022/01/09 01:12:31;;;;;;;;;4.25;1.75;;;;;6.94;69.50;99861.06;5056766;28;45334;-52
2022/01/09 01:14:57;;;;;;;;;4.25;0.75;;;;;6.93;69.31;99862.06;5058478;28;45315;-50
2022/01/09 01:17:23;;;;;;;;;4.00;1.75;;;;;6.93;68.51;99885.84;5060543;28;45185;-50
2022/01/09 01:19:48;;;;;;;;;2.00;1.75;;;;;6.93;68.70;99899.06;5060174;28;46299;-48
2022/01/09 01:22:15;;;;;;;;;0.50;0.00;;;;;6.93;69.18;99891.97;5060439;28;45359;-49
2022/01/09 01:24:45;;;;;;;;;8.50;2.00;;;;;6.85;68.60;99881.28;5060425;28;45315;-48
2022/01/09 01:27:11;;;;;;;;;4.00;1.00;;;;;6.90;68.89;99908.09;5060222;28;45805;-51
2022/01/09 01:29:37;;;;;;;;;4.25;0.50;;;;;6.88;69.27;99904.78;5059987;28;45672;-53
2022/01/09 01:32:03;;;;;;;;;3.25;0.00;;;;;6.85;68.95;99926.22;5060041;28;45363;-45
2022/01/09 01:34:29;;;;;;;;;1.50;0.00;;;;;6.82;68.42;99917.72;5060001;28;45370;-53
2022/01/09 01:36:54;;;;;;;;;0.00;0.00;;;;;6.83;69.21;99930.00;5060074;28;45486;-50
2022/01/09 01:39:20;;;;;;;;;1.00;0.00;;;;;6.84;69.43;99936.94;5059682;28;46114;-51
2022/01/09 01:41:45;;;;;;;;;1.00;0.00;;;;;6.90;69.29;99939.00;5059902;28;45344;-49
2022/01/09 01:44:12;;;;;;;;;1.75;1.00;;;;;6.94;69.07;99956.25;5059860;28;45718;-52
2022/01/09 01:46:38;;;;;;;;;2.75;1.00;;;;;6.98;69.33;99970.84;5060189;28;45446;-50
2022/01/09 01:49:05;;;;;;;;;5.25;0.00;;;;;7.06;69.66;99972.78;5059512;28;45332;-51
2022/01/09 01:51:31;;;;;;;;;5.00;0.00;;;;;7.03;69.78;99989.75;5092177;27;45336;-49
2022/01/09 01:53:57;;;;;;;;;3.25;0.25;;;;;6.97;70.69;99974.47;5059595;28;45245;-49
2022/01/09 01:56:23;;;;;;;;;2.50;0.25;;;;;7.11;70.33;100002.28;5059750;28;45251;-50
2022/01/09 01:58:51;;;;;;;;;4.50;0.50;;;;;7.13;70.74;99995.88;5059379;28;45335;-52
2022/01/09 02:01:17;;;;;;;;;1.00;0.75;;;;;7.12;70.62;99985.44;5059349;28;45459;-50
2022/01/09 02:03:42;;;;;;;;;4.00;1.00;;;;;7.07;70.25;99985.84;5058240;28;45374;-51
2022/01/09 02:06:08;;;;;;;;;0.75;0.00;;;;;7.16;70.42;100006.19;5059731;28;45327;-51
2022/01/09 02:08:34;;;;;;;;;1.75;0.00;;;;;7.06;70.55;99992.13;5059180;28;46299;-51
2022/01/09 02:11:00;;;;;;;;;4.00;0.00;;;;;7.19;70.19;100015.63;5059411;28;45338;-51
2022/01/09 02:13:25;;;;;;;;;4.00;1.00;;;;;7.15;69.94;100009.78;5059412;28;45355;-48
2022/01/09 02:15:56;;;;;;;;;8.25;1.00;;;;;7.15;69.55;100016.91;5059617;28;45165;-49
2022/01/09 02:18:23;;;;;;;;;1.00;0.50;;;;;7.13;69.63;100026.78;5059307;28;46355;-48
2022/01/09 02:20:50;;;;;;;;;1.00;0.00;;;;;7.12;69.99;100033.03;5059233;28;45266;-51
2022/01/09 02:23:17;;;;;;;;;1.25;0.50;;;;;7.12;70.24;100033.91;5058979;28;45181;-49
2022/01/09 02:25:44;;;;;;;;;1.00;1.00;;;;;7.10;70.66;100025.25;5059060;28;45259;-45
2022/01/09 02:28:12;;;;;;;;;1.00;0.00;;;;;7.06;69.72;100050.31;5058929;28;47042;-51
2022/01/09 02:30:38;;;;;;;;;0.25;0.25;;;;;7.02;69.92;100037.53;5059117;28;45457;-48
2022/01/09 02:33:06;;;;;;;;;2.00;0.00;;;;;7.00;69.73;100037.69;5059207;28;45213;-51
2022/01/09 02:35:33;;;;;;;;;3.00;0.00;;;;;6.97;69.46;100035.31;5058932;28;45384;-48
2022/01/09 02:37:59;;;;;;;;;0.00;0.00;;;;;6.90;69.44;100023.59;5058446;28;46356;-50
2022/01/09 02:40:25;;;;;;;;;0.00;0.00;;;;;7.01;68.91;100044.63;5058862;28;45488;-49
2022/01/09 02:42:51;;;;;;;;;1.00;1.00;;;;;7.00;69.18;100045.59;5059059;28;45564;-51
2022/01/09 02:45:20;;;;;;;;;1.00;0.00;;;;;6.84;68.98;100029.47;5059372;28;45365;-52
2022/01/09 02:47:47;;;;;;;;;1.00;0.00;;;;;6.90;68.70;100063.25;5058633;28;45402;-48
2022/01/09 02:52:53;;;;;;;;;5.50;0.50;;;;;7.07;68.59;100080.25;5058608;28;45277;-50
2022/01/09 02:55:20;;;;;;;;;0.50;0.00;;;;;7.04;69.04;100084.00;5059187;28;45430;-50
2022/01/09 02:57:51;;;;;;;;;0.00;0.00;;;;;7.06;68.96;100075.94;5058301;28;47155;-48
2022/01/09 03:00:27;;;;;;;;;0.00;0.00;;;;;7.02;68.57;100067.44;5058699;28;45313;-53
2022/01/09 03:02:54;;;;;;;;;0.00;0.00;;;;;6.97;69.21;100072.31;5058791;28;45382;-52
2022/01/09 03:05:19;;;;;;;;;0.75;0.75;;;;;6.90;69.17;100084.41;5058666;28;45195;-50
2022/01/09 03:07:45;;;;;;;;;0.75;0.00;;;;;6.91;69.06;100096.66;5056919;28;46863;-51
2022/01/09 03:10:13;;;;;;;;;5.50;1.00;;;;;6.92;69.25;100093.91;5058072;28;45212;-51
2022/01/09 03:12:39;;;;;;;;;0.00;0.00;;;;;6.83;69.37;100070.94;5058394;28;45383;-52
2022/01/09 03:15:06;;;;;;;;;1.50;0.00;;;;;6.95;69.39;100093.63;5058614;28;45294;-51
2022/01/09 03:17:33;;;;;;;;;0.50;0.00;;;;;6.93;69.39;100098.19;5058220;28;48078;-50
2022/01/09 03:19:58;;;;;;;;;0.50;0.00;;;;;6.93;69.10;100097.38;5058129;28;45298;-51
2022/01/09 03:22:24;;;;;;;;;0.50;0.00;;;;;6.95;69.51;100090.97;5058487;28;45178;-52
2022/01/09 03:24:49;;;;;;;;;0.00;0.00;;;;;6.92;68.99;100096.53;5058339;28;45458;-47
2022/01/09 03:27:16;;;;;;;;;1.25;0.00;;;;;6.87;68.66;100098.78;5058119;28;45480;-48
2022/01/09 03:29:41;;;;;;;;;0.25;0.25;;;;;6.85;69.12;100108.63;5056716;28;45331;-51
2022/01/09 03:32:08;;;;;;;;;0.00;0.00;;;;;6.86;68.43;100098.88;5057885;28;45445;-50
2022/01/09 03:34:34;;;;;;;;;0.00;0.00;;;;;6.82;68.87;100086.91;5058502;28;45570;-52
2022/01/09 03:36:59;;;;;;;;;2.00;0.00;;;;;6.94;68.55;100104.31;5057317;28;45438;-56
2022/01/09 03:39:24;;;;;;;;;2.50;1.00;;;;;6.97;69.09;100112.81;5056630;28;45486;-50
2022/01/09 03:41:50;;;;;;;;;0.00;0.00;;;;;6.99;68.21;100132.03;5057868;28;45292;-50
2022/01/09 03:44:16;;;;;;;;;1.75;0.00;;;;;6.97;68.62;100144.53;5058074;28;45381;-51
2022/01/09 03:46:42;;;;;;;;;1.75;1.00;;;;;6.99;69.27;100147.03;5057768;28;47495;-50
2022/01/09 03:49:07;;;;;;;;;2.00;0.00;;;;;7.02;69.30;100148.59;5057597;28;45336;-51
2022/01/09 03:51:36;;;;;;;;;0.00;0.00;;;;;7.02;70.15;100160.00;5057975;28;45317;-50
2022/01/09 03:54:03;;;;;;;;;2.00;0.50;;;;;6.97;69.53;100139.25;5057878;28;45439;-51
2022/01/09 03:56:28;;;;;;;;;2.00;0.00;;;;;7.03;70.15;100145.78;5057573;28;46136;-52
2022/01/09 03:58:53;;;;;;;;;1.25;0.50;;;;;7.01;70.64;100145.09;5057429;28;45329;-50
2022/01/09 04:01:19;;;;;;;;;0.50;0.50;;;;;7.08;70.90;100159.47;5057798;28;45379;-49
2022/01/09 04:03:45;;;;;;;;;1.00;0.00;;;;;7.07;69.93;100160.41;5058016;28;45325;-49
2022/01/09 04:06:10;;;;;;;;;2.00;0.00;;;;;7.07;70.20;100152.47;5057244;28;45410;-50
2022/01/09 04:08:36;;;;;;;;;2.50;0.75;;;;;7.04;70.56;100152.78;5057210;28;45373;-46
2022/01/09 04:11:04;;;;;;;;;6.00;1.00;;;;;7.00;70.90;100141.63;5057774;28;45374;-48
2022/01/09 04:13:30;;;;;;;;;1.00;1.00;;;;;6.91;70.87;100128.38;5057695;28;45230;-51
2022/01/09 04:15:55;;;;;;;;;0.00;0.00;;;;;6.70;70.20;100107.34;5057029;28;46017;-50
2022/01/09 04:18:22;;;;;;;;;1.00;1.00;;;;;6.74;70.10;100128.13;5057293;28;45425;-49
2022/01/09 04:20:49;;;;;;;;;3.25;1.25;;;;;6.66;70.43;100127.13;5057351;28;45303;-49
2022/01/09 04:23:16;;;;;;;;;1.00;0.00;;;;;6.61;70.50;100132.78;5057585;28;45346;-50
2022/01/09 04:25:42;;;;;;;;;3.00;1.00;;;;;6.56;70.68;100137.66;5056957;28;46216;-52
2022/01/09 04:28:09;;;;;;;;;5.00;1.00;;;;;6.55;71.01;100151.84;5089808;27;45377;-49
2022/01/09 04:30:35;;;;;;;;;0.75;0.50;;;;;6.56;71.04;100150.03;5057384;28;45416;-50
2022/01/09 04:33:00;;;;;;;;;0.50;0.00;;;;;6.58;71.16;100148.94;5057406;28;45316;-47
2022/01/09 04:35:26;;;;;;;;;2.00;1.00;;;;;6.56;71.65;100144.75;5072807;28;47175;-49
2022/01/09 04:37:53;;;;;;;;;2.50;1.00;;;;;6.67;71.21;100152.59;5056952;28;45373;-46
2022/01/09 04:40:20;;;;;;;;;0.00;0.00;;;;;6.70;71.32;100147.88;5056883;28;45238;-50
2022/01/09 04:42:50;;;;;;;;;0.25;0.00;;;;;6.64;70.63;100121.97;5057317;28;45432;-51
2022/01/09 04:45:17;;;;;;;;;0.25;0.25;;;;;6.69;70.45;100148.81;5056750;28;45351;-52
2022/01/09 04:47:46;;;;;;;;;2.00;0.00;;;;;6.69;70.60;100155.91;5055690;28;45268;-50
2022/01/09 04:50:21;;;;;;;;;2.00;0.50;;;;;6.66;71.08;100146.47;5056596;28;45509;-52
2022/01/09 04:52:47;;;;;;;;;2.00;1.00;;;;;6.72;70.62;100158.28;5057083;28;45350;-51
2022/01/09 04:55:12;;;;;;;;;0.00;0.00;;;;;6.77;71.10;100173.75;5056638;28;45303;-51
2022/01/09 04:57:39;;;;;;;;;4.75;0.00;;;;;6.78;71.46;100165.66;5056772;28;45346;-50
2022/01/09 05:00:06;;;;;;;;;4.25;0.00;;;;;6.79;71.33;100167.34;5056921;28;45218;-49
2022/01/09 05:02:31;;;;;;;;;0.00;0.00;;;;;6.80;72.03;100145.22;5056839;28;45382;-50
2022/01/09 05:04:57;;;;;;;;;0.00;0.00;;;;;6.81;71.40;100156.63;5056573;28;45225;-48
2022/01/09 05:07:22;;;;;;;;;1.25;1.00;;;;;6.80;71.17;100157.63;5055478;28;45264;-50
2022/01/09 05:09:47;;;;;;;;;3.00;0.00;;;;;6.77;71.22;100155.22;5056840;28;45387;-50
2022/01/09 05:12:13;;;;;;;;;1.00;0.00;;;;;6.76;71.49;100162.34;5056971;28;45244;-51
2022/01/09 05:14:38;;;;;;;;;4.25;0.25;;;;;6.69;71.21;100145.34;5056665;28;46842;-51
2022/01/09 05:17:04;;;;;;;;;2.75;0.00;;;;;6.73;70.91;100152.03;5056877;28;45213;-48
2022/01/09 05:19:31;;;;;;;;;1.00;0.25;;;;;6.71;71.62;100151.34;5056753;28;45354;-51
2022/01/09 05:21:57;;;;;;;;;0.75;0.00;;;;;6.65;70.95;100143.94;5057128;28;45339;-47
2022/01/09 05:24:23;;;;;;;;;1.00;1.00;;;;;6.62;71.35;100165.38;5056158;28;45356;-48
2022/01/09 05:26:48;;;;;;;;;0.50;0.50;;;;;6.63;72.16;100152.00;5056491;28;45288;-50
2022/01/09 05:29:14;;;;;;;;;1.00;0.00;;;;;6.63;71.65;100162.59;5056835;28;45301;-48
2022/01/09 05:31:40;;;;;;;;;1.00;0.00;;;;;6.61;72.14;100147.81;5056905;28;45361;-50
2022/01/09 05:34:06;;;;;;;;;1.00;1.00;;;;;6.56;71.81;100150.88;5056546;28;45256;-47
2022/01/09 05:36:32;;;;;;;;;4.00;0.00;;;;;6.43;72.68;100126.50;5056006;28;45441;-49
2022/01/09 05:38:57;;;;;;;;;0.00;0.00;;;;;6.43;73.07;100123.88;5056411;28;45300;-51
2022/01/09 05:41:23;;;;;;;;;0.25;0.25;;;;;6.51;73.01;100147.81;5056408;28;45410;-52
2022/01/09 05:43:48;;;;;;;;;2.00;0.25;;;;;6.50;73.02;100143.50;5056206;28;45312;-51
2022/01/09 05:46:14;;;;;;;;;1.75;1.00;;;;;6.44;72.71;100133.47;5056648;28;45601;-52
2022/01/09 05:48:39;;;;;;;;;0.50;0.50;;;;;6.40;72.38;100129.41;5054982;28;45673;-49
2022/01/09 05:51:05;;;;;;;;;1.75;1.00;;;;;6.40;72.70;100139.97;5056500;28;45406;-47
2022/01/09 05:53:30;;;;;;;;;1.00;0.75;;;;;6.39;73.07;100138.31;5056061;28;46244;-50
2022/01/09 05:55:56;;;;;;;;;2.00;1.00;;;;;6.41;72.62;100141.69;5054732;28;45350;-49
2022/01/09 05:58:21;;;;;;;;;4.25;1.00;;;;;6.41;72.67;100146.97;5056112;28;45394;-49
2022/01/09 06:00:46;;;;;;;;;3.00;0.75;;;;;6.38;73.17;100139.28;5056393;28;45263;-51
2022/01/09 06:03:12;;;;;;;;;1.50;1.50;;;;;6.43;72.79;100147.66;5059511;28;45356;-47
2022/01/09 06:05:37;;;;;;;;;0.75;0.00;;;;;6.42;72.75;100152.09;5059556;28;45477;-50
2022/01/09 06:08:03;;;;;;;;;0.25;0.00;;;;;6.41;72.98;100163.66;5059624;28;45241;-53
2022/01/09 06:10:28;;;;;;;;;2.00;2.00;;;;;6.48;73.54;100177.97;5059696;28;45438;-52
2022/01/09 06:12:53;;;;;;;;;2.50;0.00;;;;;6.57;73.17;100186.06;5059369;28;45952;-49
2022/01/09 06:15:19;;;;;;;;;0.00;0.00;;;;;6.62;73.08;100191.81;5059415;28;45335;-48
2022/01/09 06:17:44;;;;;;;;;4.00;0.00;;;;;6.66;73.03;100177.34;5059439;28;45263;-48
2022/01/09 06:20:12;;;;;;;;;3.50;2.00;;;;;6.71;72.74;100191.81;5059473;28;45261;-51
2022/01/09 06:22:38;;;;;;;;;2.00;0.00;;;;;6.77;73.23;100194.88;5059166;28;46129;-52
2022/01/09 06:25:05;;;;;;;;;2.00;0.50;;;;;6.81;72.72;100188.34;5058905;28;45427;-52
2022/01/09 06:27:31;;;;;;;;;3.75;0.75;;;;;6.80;72.62;100182.25;5059014;28;45369;-53
2022/01/09 06:29:56;;;;;;;;;3.75;0.00;;;;;6.89;71.96;100196.44;5059311;28;45275;-52
2022/01/09 06:32:22;;;;;;;;;4.25;0.25;;;;;6.92;72.03;100190.91;5058868;28;46045;-50
2022/01/09 06:34:47;;;;;;;;;1.00;1.00;;;;;6.91;71.94;100194.47;5058969;28;45336;-48
2022/01/09 06:37:13;;;;;;;;;1.50;0.00;;;;;6.90;72.28;100191.00;5058819;28;45354;-51
2022/01/09 06:39:42;;;;;;;;;0.00;0.00;;;;;6.90;72.19;100185.72;5059064;28;45393;-48
2022/01/09 06:42:07;;;;;;;;;0.00;0.00;;;;;6.92;71.81;100193.53;5058572;28;47400;-48
2022/01/09 06:44:33;;;;;;;;;1.50;0.00;;;;;6.92;71.70;100190.91;5058713;28;45224;-52
2022/01/09 06:46:58;;;;;;;;;3.00;0.00;;;;;6.91;71.59;100205.06;5059050;28;45335;-52
2022/01/09 06:49:23;;;;;;;;;1.75;0.50;;;;;6.90;71.78;100200.75;5059023;28;45502;-51
2022/01/09 06:51:49;;;;;;;;;3.00;1.00;;;;;6.88;71.70;100197.44;5058581;28;45420;-49
2022/01/09 06:54:14;;;;;;;;;6.00;1.00;;;;;6.85;71.87;100197.69;5058854;28;45433;-48
2022/01/09 06:56:41;;;;;;;;;0.50;0.00;;;;;6.86;71.84;100212.56;5058628;28;45669;-48
2022/01/09 06:59:06;;;;;;;;;3.00;0.00;;;;;6.85;71.46;100190.59;5058811;28;45424;-51
2022/01/09 07:01:31;;;;;;;;;0.00;0.00;;;;;6.83;70.99;100189.91;5058406;28;46207;-51
2022/01/09 07:03:57;;;;;;;;;0.00;0.00;;;;;6.82;71.56;100188.22;5058520;28;45368;-48
2022/01/09 07:06:22;;;;;;;;;2.00;1.00;;;;;6.84;71.58;100190.75;5058643;28;45315;-49
2022/01/09 07:08:48;;;;;;;;;1.00;1.00;;;;;6.82;71.34;100182.91;5058687;28;45308;-46
2022/01/09 07:11:13;;;;;;;;;0.00;0.00;;;;;6.81;71.05;100181.25;5058203;28;46251;-48
2022/01/09 07:13:39;;;;;;;;;0.00;0.00;;;;;6.79;70.63;100183.22;5058387;28;45288;-52
2022/01/09 07:16:05;;;;;;;;;0.00;0.00;;;;;6.70;71.62;100179.59;5058606;28;45336;-51
2022/01/09 07:18:30;;;;;;;;;1.00;0.25;;;;;6.46;70.95;100139.47;5058758;28;45290;-53
2022/01/09 07:20:56;;;;;;;;;2.00;0.00;;;;;6.78;71.22;100200.03;5056529;28;47933;-51
2022/01/09 07:23:21;;;;;;;;;0.00;0.00;;;;;6.80;71.39;100194.63;5058400;28;45217;-52
2022/01/09 07:25:47;;;;;;;;;1.75;0.25;;;;;6.78;71.48;100191.25;5058265;28;45554;-50
2022/01/09 07:28:12;;;;;;;;;1.75;0.00;;;;;6.76;71.24;100199.34;5057114;28;45518;-50
2022/01/09 07:30:37;;;;;;;;;0.00;0.00;;;;;6.75;71.77;100203.78;5058309;28;46133;-48
2022/01/09 07:33:04;;;;;;;;;2.00;0.00;;;;;6.75;72.50;100206.44;5057983;28;45327;-45
2022/01/09 07:35:30;;;;;;;;;0.00;0.00;;;;;6.73;72.04;100203.09;5058247;28;45397;-47
2022/01/09 07:37:56;;;;;;;;;0.00;0.00;;;;;6.73;72.33;100205.72;5057904;28;45387;-49
2022/01/09 07:40:21;;;;;;;;;1.00;0.00;;;;;6.75;72.19;100203.78;5057590;28;45933;-50
2022/01/09 07:42:47;;;;;;;;;4.00;0.00;;;;;6.70;72.93;100211.31;5057760;28;45356;-49
2022/01/09 07:45:15;;;;;;;;;0.00;0.00;;;;;6.75;73.62;100211.72;5057839;28;45525;-52
2022/01/09 07:47:40;;;;;;;;;0.00;0.00;;;;;6.75;72.93;100211.72;5058129;28;45278;-49
2022/01/09 07:50:11;;;;;;;;;0.00;0.00;;;;;6.78;73.65;100210.59;5057677;28;46030;-48
2022/01/09 07:52:38;;;;;;;;;2.00;0.75;;;;;6.79;73.11;100208.81;5057744;28;45471;-49
2022/01/09 07:55:05;;;;;;;;;0.50;0.50;;;;;6.80;73.59;100218.41;5057932;28;45311;-46
2022/01/09 07:57:31;;;;;;;;;0.00;0.00;;;;;6.82;74.39;100205.88;5057828;28;45258;-52
2022/01/09 08:00:02;;;;;;;;;2.75;1.25;;;;;6.82;74.35;100209.34;5057036;28;46316;-43
2022/01/09 08:02:28;;;;;;;;;0.00;0.00;;;;;6.82;74.01;100203.25;5057409;28;45433;-48
2022/01/09 08:04:53;;;;;;;;;1.00;1.00;;;;;6.81;74.33;100209.50;5057513;28;45441;-51
2022/01/09 08:07:19;;;;;;;;;1.00;1.00;;;;;6.85;73.12;100217.03;5058039;28;45308;-52
2022/01/09 08:09:45;;;;;;;;;2.00;0.50;;;;;6.85;73.94;100217.03;5057498;28;45917;-47
2022/01/09 08:12:14;;;;;;;;;0.00;0.00;;;;;6.84;73.87;100211.88;5057213;28;45448;-49
2022/01/09 08:14:43;;;;;;;;;0.75;0.75;;;;;6.81;74.75;100201.56;5057739;28;45603;-49
2022/01/09 08:17:09;;;;;;;;;0.00;0.00;;;;;6.74;74.00;100180.97;5057645;28;45466;-49
2022/01/09 08:19:35;;;;;;;;;0.00;0.00;;;;;6.79;73.32;100200.88;5057308;28;46101;-47
2022/01/09 08:22:02;;;;;;;;;6.00;2.00;;;;;6.74;73.46;100203.91;5057542;28;45323;-49
2022/01/09 08:24:28;;;;;;;;;1.50;1.50;;;;;6.70;73.30;100199.88;5056573;28;45449;-52
2022/01/09 08:26:53;;;;;;;;;1.50;0.00;;;;;6.75;73.36;100213.53;5057278;28;45468;-49
2022/01/09 08:29:19;;;;;;;;;0.00;0.00;;;;;6.74;72.82;100212.69;5057670;28;47154;-50
2022/01/09 08:31:44;;;;;;;;;0.75;0.75;;;;;6.81;72.17;100217.44;5057368;28;45326;-53
2022/01/09 08:34:09;;;;;;;;;1.00;1.00;;;;;6.86;72.34;100223.16;5057605;28;45485;-50
2022/01/09 08:36:35;;;;;;;;;0.00;0.00;;;;;6.75;71.89;100205.59;5057244;28;45452;-50
2022/01/09 08:39:03;;;;;;;;;0.75;0.75;;;;;6.87;72.94;100220.38;5058026;28;45548;-51
2022/01/09 08:41:29;;;;;;;;;0.00;0.00;;;;;7.01;71.97;100229.72;5056004;28;45448;-53
2022/01/09 08:43:54;;;;;;;;;5.00;1.00;;;;;7.06;71.63;100222.22;5057083;28;45441;-53
2022/01/09 08:46:19;;;;;;;;;2.50;0.00;;;;;6.98;71.62;100211.50;5057388;28;45651;-54
2022/01/09 08:48:45;;;;;;;;;2.00;0.00;;;;;7.02;71.81;100220.81;5055461;28;46202;-49
2022/01/09 08:51:10;;;;;;;;;0.00;0.00;;;;;7.00;71.78;100212.19;5057008;28;45490;-53
2022/01/09 08:53:36;;;;;;;;;0.00;0.00;;;;;6.93;71.59;100206.63;5056980;28;45352;-51
2022/01/09 08:56:03;;;;;;;;;2.50;1.25;;;;;6.90;72.37;100216.63;5057115;28;45482;-51
2022/01/09 08:58:30;;;;;;;;;2.25;1.00;;;;;6.90;72.06;100216.63;5056592;28;47270;-54
2022/01/09 09:00:55;;;;;;;;;0.00;0.00;;;;;6.89;72.54;100223.72;5056695;28;45371;-51
2022/01/09 09:03:22;;;;;;;;;0.00;0.00;;;;;6.76;72.19;100201.97;5056998;28;45466;-53
2022/01/09 09:05:47;;;;;;;;;0.00;0.00;;;;;6.85;72.10;100209.09;5057041;28;45325;-46
2022/01/09 09:08:13;;;;;;;;;0.00;0.00;;;;;6.91;72.04;100208.56;5056479;28;45354;-52
2022/01/09 09:10:38;;;;;;;;;0.00;0.00;;;;;7.07;71.33;100210.66;5056659;28;45253;-54
2022/01/09 09:13:04;;;;;;;;;0.00;0.00;;;;;7.23;71.40;100210.97;5056504;28;45254;-52
2022/01/09 09:15:29;;;;;;;;;4.00;2.00;;;;;7.54;70.99;100225.88;5056807;28;45498;-48
2022/01/09 09:17:55;;;;;;;;;0.00;0.00;;;;;7.77;69.66;100223.78;5056574;28;45733;-53
2022/01/09 09:20:21;;;;;;;;;0.25;0.25;;;;;7.84;69.66;100219.59;5056545;28;45424;-55
2022/01/09 09:22:47;;;;;;;;;2.00;1.00;;;;;7.74;69.39;100212.47;5056568;28;45220;-50
2022/01/09 09:25:13;;;;;;;;;1.00;1.00;;;;;7.70;69.74;100226.13;5056571;28;45292;-52
2022/01/09 09:27:38;;;;;;;;;0.00;0.00;;;;;7.66;71.03;100240.63;5056092;28;46412;-51
2022/01/09 09:30:04;;;;;;;;;1.25;1.25;;;;;7.59;70.82;100240.38;5056214;28;45366;-52
2022/01/09 09:32:30;;;;;;;;;0.00;0.00;;;;;7.54;71.14;100250.53;5056270;28;45383;-50
2022/01/09 09:34:56;;;;;;;;;3.33;0.00;;;;;7.49;72.30;100240.34;5056523;28;45365;-51
2022/01/09 09:37:22;;;;;;;;;2.50;0.50;;;;;7.45;72.03;100248.72;5058384;28;46655;-56
2022/01/09 09:39:48;;;;;;;;;4.50;2.00;;;;;7.41;72.01;100249.97;5060464;27;45324;-46
2022/01/09 09:42:15;;;;;;;;;0.25;0.25;;;;;7.36;72.14;100250.38;5059722;28;45297;-50
2022/01/09 09:44:41;;;;;;;;;1.25;0.00;;;;;7.33;72.73;100233.94;5058645;28;45423;-52
2022/01/09 09:47:07;;;;;;;;;2.00;1.00;;;;;7.33;73.00;100247.16;5059513;28;46112;-49
2022/01/09 09:49:33;;;;;;;;;3.50;1.00;;;;;7.33;73.95;100239.22;5092440;27;45275;-46
2022/01/09 09:51:58;;;;;;;;;2.75;0.75;;;;;7.38;73.24;100237.03;5059774;28;45378;-51
2022/01/09 09:54:25;;;;;;;;;6.00;1.75;;;;;7.42;73.09;100252.50;5061474;28;45355;-53
2022/01/09 09:56:52;;;;;;;;;5.75;2.00;;;;;7.43;73.25;100253.31;5063597;28;45548;-53
2022/01/09 09:59:34;;;;;;;;;1.25;0.50;;;;;7.44;73.66;100266.41;5062292;28;45413;-54
2022/01/09 10:01:59;;;;;;;;;5.00;0.75;;;;;7.49;73.42;100263.34;5063212;28;45407;-54
2022/01/09 10:04:25;;;;;;;;;3.75;1.25;;;;;7.49;73.42;100268.63;5065405;28;45514;-51
2022/01/09 10:06:50;;;;;;;;;7.50;4.00;;;;;7.53;74.03;100267.38;5064111;28;47049;-45
2022/01/09 10:09:21;;;;;;;;;2.00;0.00;;;;;7.52;72.78;100278.13;5063744;28;45295;-47
2022/01/09 10:11:48;;;;;;;;;5.25;2.50;;;;;7.49;73.68;100280.06;5062032;28;45228;-53
2022/01/09 10:14:26;;;;;;;;;5.00;1.00;;;;;7.44;72.52;100262.94;5059972;28;45293;-53
2022/01/09 10:17:06;;;;;;;;;1.00;1.00;;;;;7.47;73.45;100257.38;5081904;27;46361;-54
2022/01/09 10:19:44;;;;;;;;;5.75;2.00;;;;;7.46;71.50;100264.47;5099953;27;45177;-54
2022/01/09 10:22:33;;;;;;;;;4.50;1.25;;;;;7.47;72.16;100265.31;5100122;27;45458;-55
2022/01/09 10:25:27;;;;;;;;;1.00;1.00;;;;;7.47;72.86;100271.44;5100285;27;45525;-54
2022/01/09 10:28:21;;;;;;;;;1.25;1.25;;;;;7.51;72.54;100261.41;5099600;27;46124;-53
2022/01/09 10:30:48;;;;;;;;;2.00;1.50;;;;;7.53;72.76;100272.66;5098631;27;46144;-51
2022/01/09 10:33:18;;;;;;;;;3.00;2.50;;;;;7.55;73.02;100267.25;5099890;27;45327;-48
2022/01/09 10:35:46;;;;;;;;;2.00;2.00;;;;;7.55;72.83;100280.50;5100127;27;45390;-46
2022/01/09 10:38:23;;;;;;;;;2.00;2.00;;;;;7.54;73.61;100284.94;5099340;27;46469;-54
2022/01/09 10:40:57;;;;;;;;;2.00;2.00;;;;;7.56;73.54;100287.47;5099299;27;45346;-54
2022/01/09 10:43:25;;;;;;;;;6.00;4.25;;;;;7.57;73.25;100283.81;5099600;27;45428;-54
2022/01/09 10:45:59;;;;;;;;;5.25;1.50;;;;;7.62;73.88;100278.94;5099981;27;45386;-53
2022/01/09 10:48:32;;;;;;;;;2.75;2.75;;;;;7.70;73.56;100271.97;5098995;27;46303;-48
2022/01/09 10:50:58;;;;;;;;;4.25;4.25;;;;;7.80;72.68;100263.22;5099493;27;45327;-46
2022/01/09 10:53:32;;;;;;;;;4.00;2.00;;;;;7.87;72.59;100281.03;5099714;27;45386;-47
2022/01/09 10:56:13;;;;;;;;;1.00;1.00;;;;;7.89;71.86;100283.56;5098584;27;45440;-53
2022/01/09 10:58:50;;;;;;;;;6.00;3.75;;;;;7.87;72.33;100288.97;5099209;27;46078;-50
2022/01/09 11:01:25;;;;;;;;;2.00;0.75;;;;;7.85;72.07;100280.34;5099282;27;45447;-53
2022/01/09 11:03:54;;;;;;;;;4.00;1.25;;;;;7.83;71.87;100273.50;5099407;27;45284;-52
2022/01/09 11:06:21;;;;;;;;;3.00;1.00;;;;;7.78;71.81;100276.56;5099613;27;45744;-49
2022/01/09 11:08:47;;;;;;;;;2.00;1.00;;;;;7.67;72.44;100264.34;5099165;27;46267;-55
2022/01/09 11:11:31;;;;;;;;;3.67;0.33;;;;;7.74;72.18;100283.97;5099294;27;45279;-57
2022/01/09 11:14:02;;;;;;;;;2.00;0.00;;;;;7.73;72.72;100287.59;5099159;27;45321;-55
2022/01/09 11:16:42;;;;;;;;;1.00;1.00;;;;;7.71;73.29;100289.56;5099216;27;45303;-54
2022/01/09 11:19:14;;;;;;;;;5.50;3.00;;;;;7.66;73.45;100291.75;5098641;27;45947;-55
2022/01/09 11:21:49;;;;;;;;;3.50;3.50;;;;;7.62;74.07;100290.38;5098950;27;45422;-57
2022/01/09 11:24:24;;;;;;;;;6.00;5.00;;;;;7.60;74.09;100294.16;5099136;27;45322;-57
2022/01/09 11:26:58;;;;;;;;;8.00;6.00;;;;;7.56;74.24;100290.94;5099216;27;45443;-56
2022/01/09 11:29:38;;;;;;;;;5.00;5.00;;;;;7.65;73.54;100287.44;5098541;27;46291;-56
2022/01/09 11:32:28;;;;;;;;;7.50;7.50;;;;;7.89;73.36;100291.50;5097415;27;45337;-56
2022/01/09 11:35:22;;;;;;;;;9.75;6.50;;;;;8.12;72.55;100289.38;5098931;27;45525;-56
2022/01/09 11:38:31;;;;;;;;;6.25;5.00;;;;;8.27;71.43;100289.78;5098683;27;45291;-55